Time;durP1;ratioP1;P1;durP2;ratioP2;P2;SDS_P1;SDS_P2;PMS_P1;PMS_P2;Temp;Humidity;BMP_temperature;BMP_pressure;BME280_temperature;BME280_humidity;BME280_pressure;Samples;Min_cycle;Max_cycle;Signal;HPM_P1;HPM_P2
2023/04/16 00:01:09;;;;;;;7.18;3.15;;;11.10;96.80;;;;;;10493922;28;20041;-65
2023/04/16 00:06:10;;;;;;;6.22;2.63;;;11.10;96.80;;;;;;10488547;28;20430;-65
2023/04/16 00:11:11;;;;;;;7.22;2.92;;;11.00;96.80;;;;;;10484892;28;20356;-65
2023/04/16 00:16:11;;;;;;;7.97;3.42;;;11.10;96.80;;;;;;10489150;28;20250;-65
2023/04/16 00:21:12;;;;;;;7.50;3.28;;;11.00;96.80;;;;;;10492738;28;20514;-65
2023/04/16 00:26:13;;;;;;;11.05;3.53;;;11.00;96.80;;;;;;10485014;28;20539;-66
2023/04/16 00:31:13;;;;;;;8.13;2.95;;;11.00;96.80;;;;;;10487012;28;20013;-65
2023/04/16 00:36:14;;;;;;;7.03;3.80;;;11.00;96.80;;;;;;10491822;28;20058;-65
2023/04/16 00:41:15;;;;;;;10.07;3.85;;;11.00;96.80;;;;;;10488684;28;20515;-65
2023/04/16 00:46:19;;;;;;;7.53;3.42;;;11.00;96.80;;;;;;10488447;28;20028;-66
2023/04/16 00:51:21;;;;;;;8.73;3.75;;;11.00;96.90;;;;;;10491455;28;20251;-65
2023/04/16 00:56:23;;;;;;;7.80;3.85;;;11.00;96.90;;;;;;10494360;28;20032;-65
2023/04/16 01:01:23;;;;;;;9.65;3.92;;;11.00;96.90;;;;;;10492177;28;20155;-65
2023/04/16 01:06:24;;;;;;;7.78;3.97;;;11.00;96.90;;;;;;10489834;28;20362;-65
2023/04/16 01:11:25;;;;;;;10.65;3.88;;;11.00;96.90;;;;;;10487012;28;20301;-66
2023/04/16 01:16:25;;;;;;;10.65;4.00;;;11.00;96.90;;;;;;10485357;28;20025;-65
2023/04/16 01:21:26;;;;;;;9.50;3.50;;;11.00;96.90;;;;;;10483700;28;20029;-65
2023/04/16 01:26:27;;;;;;;11.25;4.35;;;11.00;96.90;;;;;;10485822;28;20024;-65
2023/04/16 01:31:28;;;;;;;11.98;4.38;;;11.00;96.90;;;;;;10488645;28;20020;-65
2023/04/16 01:36:28;;;;;;;11.30;4.05;;;11.00;96.80;;;;;;10495934;28;20483;-65
2023/04/16 01:41:30;;;;;;;9.75;4.18;;;11.00;96.90;;;;;;10487349;28;20403;-65
2023/04/16 01:46:33;;;;;;;10.77;4.68;;;11.00;96.90;;;;;;10486009;28;20050;-65
2023/04/16 01:51:34;;;;;;;14.73;5.22;;;11.00;96.90;;;;;;10486027;28;20024;-65
2023/04/16 01:56:35;;;;;;;11.48;4.35;;;11.00;96.90;;;;;;10492536;28;20382;-65
2023/04/16 02:01:35;;;;;;;15.40;5.70;;;11.00;96.90;;;;;;10485703;28;20020;-66
2023/04/16 02:06:36;;;;;;;13.38;4.88;;;11.00;96.90;;;;;;10491724;28;20100;-65
2023/04/16 02:11:36;;;;;;;14.25;5.28;;;11.00;96.90;;;;;;10493870;28;20024;-65
2023/04/16 02:16:38;;;;;;;14.80;4.90;;;11.00;96.90;;;;;;10488621;28;20496;-66
2023/04/16 02:21:38;;;;;;;11.25;5.22;;;11.00;96.90;;;;;;10488892;28;20023;-66
2023/04/16 02:26:39;;;;;;;13.27;5.28;;;11.00;96.90;;;;;;10486613;28;20024;-65
2023/04/16 02:31:40;;;;;;;13.18;4.63;;;11.00;96.90;;;;;;10486053;28;20440;-65
2023/04/16 02:36:41;;;;;;;10.43;4.45;;;11.00;96.90;;;;;;10490965;28;20044;-66
2023/04/16 02:41:41;;;;;;;10.93;4.75;;;11.00;96.90;;;;;;10488152;28;20013;-66
2023/04/16 02:46:42;;;;;;;12.60;5.38;;;11.00;96.90;;;;;;10487364;28;20039;-65
2023/04/16 02:51:42;;;;;;;11.02;4.47;;;11.00;96.90;;;;;;10496915;28;20037;-65
2023/04/16 02:56:43;;;;;;;12.40;5.57;;;11.00;96.90;;;;;;10491496;28;20035;-65
2023/04/16 03:01:43;;;;;;;12.82;5.07;;;11.00;96.90;;;;;;10488445;28;20028;-65
2023/04/16 03:06:44;;;;;;;14.85;4.97;;;11.00;96.90;;;;;;10490076;28;20031;-66
2023/04/16 03:11:45;;;;;;;10.48;5.03;;;11.00;96.90;;;;;;10484437;28;20012;-65
2023/04/16 03:16:45;;;;;;;13.05;5.97;;;11.00;96.90;;;;;;10494368;28;20016;-65
2023/04/16 03:21:50;;;;;;;12.65;5.15;;;11.00;96.90;;;;;;10487278;28;20074;-65
2023/04/16 03:26:50;;;;;;;11.68;5.20;;;11.00;96.90;;;;;;10493701;28;20033;-65
2023/04/16 03:31:51;;;;;;;10.15;4.80;;;11.00;96.90;;;;;;10499866;28;20029;-65
2023/04/16 03:36:52;;;;;;;14.45;5.85;;;11.00;96.90;;;;;;10503224;28;20044;-65
2023/04/16 03:41:53;;;;;;;11.48;5.38;;;11.00;96.90;;;;;;10493918;28;20043;-65
2023/04/16 03:46:53;;;;;;;13.10;4.78;;;11.00;96.90;;;;;;10492387;28;20036;-65
2023/04/16 03:51:54;;;;;;;11.27;5.35;;;11.00;96.90;;;;;;10500268;28;20060;-65
2023/04/16 03:56:55;;;;;;;11.18;5.32;;;11.00;96.90;;;;;;10493998;28;20518;-65
2023/04/16 04:01:56;;;;;;;14.30;5.88;;;11.00;96.90;;;;;;10496381;28;20494;-65
2023/04/16 04:06:57;;;;;;;13.30;5.22;;;11.00;96.90;;;;;;10492697;28;20020;-65
2023/04/16 04:11:57;;;;;;;11.95;5.55;;;11.00;96.90;;;;;;10494996;28;20403;-66
2023/04/16 04:16:58;;;;;;;12.95;5.93;;;11.00;96.90;;;;;;10499488;28;20440;-65
2023/04/16 04:21:58;;;;;;;11.13;5.65;;;11.00;96.90;;;;;;10495414;28;20029;-65
2023/04/16 04:27:00;;;;;;;14.80;6.05;;;11.00;96.90;;;;;;10493479;28;20024;-65
2023/04/16 04:32:01;;;;;;;13.10;5.75;;;11.00;96.90;;;;;;10495608;28;20021;-65
2023/04/16 04:37:01;;;;;;;13.88;5.82;;;11.00;96.90;;;;;;10496049;28;20081;-65
2023/04/16 04:42:02;;;;;;;14.43;6.15;;;11.00;96.90;;;;;;10503544;28;20040;-65
2023/04/16 04:47:03;;;;;;;13.50;6.50;;;11.00;96.90;;;;;;10509908;28;20035;-66
2023/04/16 04:52:03;;;;;;;15.98;6.35;;;11.00;97.20;;;;;;10496329;28;20039;-65
2023/04/16 04:57:04;;;;;;;16.67;6.75;;;10.90;97.10;;;;;;10490947;28;20437;-65
2023/04/16 05:02:05;;;;;;;15.52;6.45;;;10.90;97.40;;;;;;10491860;28;20047;-65
2023/04/16 05:07:06;;;;;;;19.38;8.32;;;11.00;97.10;;;;;;10492076;28;20020;-65
2023/04/16 05:12:06;;;;;;;13.75;6.15;;;11.00;97.10;;;;;;10494569;28;20027;-65
2023/04/16 05:17:07;;;;;;;17.60;6.68;;;11.00;97.20;;;;;;10499806;28;20039;-65
2023/04/16 05:22:07;;;;;;;13.35;6.65;;;11.00;97.10;;;;;;10493158;28;20039;-67
2023/04/16 05:27:08;;;;;;;14.98;6.68;;;11.00;97.10;;;;;;10498307;28;20077;-65
2023/04/16 05:32:09;;;;;;;14.93;6.70;;;11.00;97.10;;;;;;10505538;28;20032;-65
2023/04/16 05:37:09;;;;;;;16.52;7.22;;;11.00;97.10;;;;;;10499769;28;20025;-65
2023/04/16 05:42:10;;;;;;;18.92;6.95;;;11.00;97.10;;;;;;10494657;28;20116;-65
2023/04/16 05:47:10;;;;;;;14.52;7.00;;;11.00;97.10;;;;;;10494800;28;20107;-65
2023/04/16 05:52:11;;;;;;;14.50;6.65;;;11.00;97.00;;;;;;10493457;28;20020;-65
2023/04/16 05:57:13;;;;;;;14.00;6.82;;;11.00;97.10;;;;;;10499822;28;20035;-65
2023/04/16 06:02:14;;;;;;;15.07;7.63;;;11.00;97.00;;;;;;10484092;28;20024;-65
2023/04/16 06:07:15;;;;;;;12.27;6.70;;;11.00;97.00;;;;;;10489982;28;20411;-65
2023/04/16 06:12:15;;;;;;;14.30;6.95;;;11.00;97.00;;;;;;10489889;28;20024;-65
2023/04/16 06:17:16;;;;;;;14.95;6.43;;;11.10;97.00;;;;;;10484479;28;20033;-65
2023/04/16 06:22:16;;;;;;;14.35;6.63;;;11.10;97.00;;;;;;10481501;28;20043;-65
2023/04/16 06:27:17;;;;;;;12.85;7.07;;;11.20;97.00;;;;;;10483564;28;20029;-65
2023/04/16 06:32:17;;;;;;;15.00;7.25;;;11.10;97.00;;;;;;10484732;28;20114;-65
2023/04/16 06:37:18;;;;;;;16.98;6.80;;;11.10;96.90;;;;;;10474082;28;20031;-65
2023/04/16 06:42:19;;;;;;;17.08;6.90;;;11.10;96.90;;;;;;10482613;28;20028;-65
2023/04/16 06:47:20;;;;;;;14.55;7.20;;;11.10;96.90;;;;;;10487648;28;20016;-65
2023/04/16 06:52:20;;;;;;;13.25;6.90;;;11.10;96.90;;;;;;10487126;28;20013;-64
2023/04/16 06:57:21;;;;;;;13.63;7.10;;;11.10;96.90;;;;;;10480655;28;20021;-65
2023/04/16 07:02:23;;;;;;;13.77;6.40;;;11.10;97.10;;;;;;10496569;28;20033;-64
2023/04/16 07:07:23;;;;;;;15.23;7.10;;;11.20;96.90;;;;;;10488238;28;20100;-64
2023/04/16 07:12:24;;;;;;;14.82;7.35;;;11.10;96.90;;;;;;10488108;28;20043;-64
2023/04/16 07:17:24;;;;;;;14.30;7.05;;;11.20;96.90;;;;;;10491966;28;20043;-65
2023/04/16 07:22:25;;;;;;;12.25;6.55;;;11.20;96.90;;;;;;10495873;28;20024;-65
2023/04/16 07:27:26;;;;;;;13.10;7.15;;;11.20;96.90;;;;;;10482484;28;20028;-64
2023/04/16 07:32:26;;;;;;;11.40;5.68;;;11.20;96.90;;;;;;10489513;28;20269;-65
2023/04/16 07:37:27;;;;;;;12.38;6.70;;;11.20;96.90;;;;;;10490832;28;20028;-65
2023/04/16 07:42:27;;;;;;;12.68;6.40;;;11.20;96.90;;;;;;10494455;28;20040;-65
2023/04/16 07:47:28;;;;;;;14.43;6.43;;;11.30;97.10;;;;;;10495319;28;20085;-65
2023/04/16 07:52:29;;;;;;;13.25;6.32;;;11.30;96.80;;;;;;10493349;28;20617;-64
2023/04/16 07:57:29;;;;;;;12.93;6.10;;;11.40;96.80;;;;;;10496034;28;20020;-65
2023/04/16 08:02:30;;;;;;;12.65;5.97;;;11.40;96.80;;;;;;10495081;28;20024;-65
2023/04/16 08:07:31;;;;;;;12.90;6.38;;;11.40;96.80;;;;;;10501447;28;20031;-65
2023/04/16 08:12:31;;;;;;;15.07;6.47;;;11.50;96.80;;;;;;10490097;28;20025;-65
2023/04/16 08:17:33;;;;;;;13.05;6.28;;;11.50;96.80;;;;;;10491863;28;20037;-65
2023/04/16 08:22:33;;;;;;;14.65;7.28;;;11.60;96.80;;;;;;10494268;28;20036;-65
2023/04/16 08:27:34;;;;;;;11.45;6.07;;;11.60;96.80;;;;;;10493734;28;20029;-65
2023/04/16 08:32:35;;;;;;;10.13;5.93;;;11.60;96.80;;;;;;10496951;28;20027;-65
2023/04/16 08:37:38;;;;;;;11.93;5.85;;;11.70;96.80;;;;;;10498372;28;20531;-67
2023/04/16 08:42:52;;;;;;;13.02;6.70;;;11.70;96.70;;;;;;10499930;28;20028;-65
2023/04/16 08:47:52;;;;;;;15.30;6.90;;;11.80;96.80;;;;;;10489853;28;20032;-64
2023/04/16 08:52:59;;;;;;;14.48;6.60;;;11.80;96.80;;;;;;10488426;28;20050;-64
2023/04/16 08:58:06;;;;;;;14.65;6.10;;;11.80;96.80;;;;;;10489376;28;20043;-63
2023/04/16 09:03:09;;;;;;;14.32;6.45;;;11.90;96.80;;;;;;10482533;28;20028;-64
2023/04/16 09:08:09;;;;;;;12.63;6.15;;;12.00;96.80;;;;;;10489682;28;20025;-64
2023/04/16 09:13:12;;;;;;;11.63;6.20;;;12.00;96.80;;;;;;10491100;28;20036;-65
2023/04/16 09:18:12;;;;;;;11.80;6.45;;;12.00;96.80;;;;;;10482583;28;20031;-64
2023/04/16 09:23:13;;;;;;;14.00;6.88;;;12.10;96.80;;;;;;10482497;28;20425;-65
2023/04/16 09:28:40;;;;;;;14.27;6.22;;;12.20;96.80;;;;;;10484533;28;20028;-64
2023/04/16 09:33:42;;;;;;;11.77;6.03;;;12.20;96.90;;;;;;10485928;28;21759;-65
2023/04/16 09:38:52;;;;;;;12.48;6.13;;;12.30;96.70;;;;;;10478044;28;20033;-63
2023/04/16 09:43:56;;;;;;;12.68;5.90;;;12.40;96.80;;;;;;10480557;28;20116;-64
2023/04/16 09:48:57;;;;;;;15.50;6.70;;;12.40;96.60;;;;;;10476626;28;20033;-63
2023/04/16 09:53:57;;;;;;;12.38;6.55;;;12.50;96.60;;;;;;10489705;28;20023;-64
2023/04/16 09:59:01;;;;;;;14.23;6.38;;;12.50;96.50;;;;;;10490609;28;20035;-64
2023/04/16 10:04:05;;;;;;;11.65;6.53;;;12.60;96.50;;;;;;10488964;28;20032;-63
2023/04/16 10:09:08;;;;;;;14.15;6.95;;;12.70;96.50;;;;;;10484811;28;20440;-64
2023/04/16 10:14:08;;;;;;;10.77;6.20;;;12.80;96.40;;;;;;10482932;28;20025;-63
2023/04/16 10:19:09;;;;;;;11.65;5.75;;;12.80;96.40;;;;;;10481382;28;20548;-63
2023/04/16 10:24:10;;;;;;;12.82;6.60;;;12.90;96.40;;;;;;10481894;28;20151;-64
2023/04/16 10:29:12;;;;;;;8.80;5.63;;;12.90;96.40;;;;;;10474483;28;20117;-64
2023/04/16 10:34:13;;;;;;;12.88;6.70;;;12.90;96.30;;;;;;10488045;28;20017;-64
2023/04/16 10:39:20;;;;;;;10.95;6.35;;;12.90;96.30;;;;;;10484679;28;20034;-63
2023/04/16 10:44:23;;;;;;;14.20;5.82;;;13.00;96.30;;;;;;10477771;28;20037;-63
2023/04/16 10:49:25;;;;;;;12.90;5.93;;;13.00;96.30;;;;;;10486030;28;20032;-63
2023/04/16 10:54:28;;;;;;;12.43;6.28;;;13.10;96.30;;;;;;10486523;28;20129;-63
2023/04/16 10:59:34;;;;;;;11.55;6.18;;;13.10;96.30;;;;;;10488035;28;20047;-64
2023/04/16 11:04:36;;;;;;;12.00;5.85;;;13.10;96.30;;;;;;10481246;28;20054;-64
2023/04/16 11:09:49;;;;;;;11.15;5.85;;;13.20;96.30;;;;;;10485643;28;20182;-64
2023/04/16 11:14:51;;;;;;;15.65;6.70;;;13.20;96.30;;;;;;10479370;28;20127;-63
2023/04/16 11:19:52;;;;;;;11.73;5.78;;;13.30;96.30;;;;;;10474707;28;20032;-63
2023/04/16 11:24:55;;;;;;;10.82;6.15;;;13.30;96.30;;;;;;10476038;28;20044;-65
2023/04/16 11:30:01;;;;;;;19.13;9.70;;;13.40;96.30;;;;;;10479574;28;20025;-65
2023/04/16 11:35:04;;;;;;;17.33;8.20;;;13.50;97.10;;;;;;10479144;28;20046;-64
2023/04/16 11:40:11;;;;;;;13.27;7.05;;;13.70;96.40;;;;;;10478600;28;20024;-65
2023/04/16 11:45:12;;;;;;;14.85;7.25;;;13.80;96.30;;;;;;10486012;28;20396;-65
2023/04/16 11:50:27;;;;;;;15.10;7.20;;;13.80;96.20;;;;;;10492224;28;20008;-64
2023/04/16 11:55:27;;;;;;;16.13;7.25;;;13.80;96.30;;;;;;10482758;28;20052;-64
2023/04/16 12:00:34;;;;;;;15.32;8.02;;;13.80;96.30;;;;;;10484166;28;20047;-64
2023/04/16 12:05:39;;;;;;;13.40;6.78;;;13.90;96.30;;;;;;10481936;28;20031;-64
2023/04/16 12:10:53;;;;;;;13.80;7.55;;;13.80;96.30;;;;;;10482385;28;20428;-65
2023/04/16 12:15:55;;;;;;;12.95;6.80;;;13.90;96.40;;;;;;10477475;28;20019;-64
2023/04/16 12:20:56;;;;;;;19.95;9.77;;;13.80;96.30;;;;;;10479214;28;20036;-65
2023/04/16 12:26:01;;;;;;;27.58;11.98;;;13.90;96.60;;;;;;10478361;28;20361;-66
2023/04/16 12:31:02;;;;;;;30.02;11.80;;;13.90;97.30;;;;;;10475319;28;20091;-65
2023/04/16 12:36:23;;;;;;;26.42;11.30;;;13.90;97.60;;;;;;10479973;28;20162;-64
2023/04/16 12:41:24;;;;;;;20.85;10.35;;;14.20;98.80;;;;;;10487630;28;20476;-65
2023/04/16 12:46:24;;;;;;;25.30;11.45;;;14.20;97.60;;;;;;10482344;28;20028;-67
2023/04/16 12:51:25;;;;;;;27.05;10.50;;;14.20;97.70;;;;;;10484564;28;20028;-67
2023/04/16 12:56:26;;;;;;;26.88;10.98;;;14.30;97.70;;;;;;10486468;28;20164;-66
2023/04/16 13:01:27;;;;;;;23.70;11.32;;;14.50;97.30;;;;;;10483704;28;20029;-67
2023/04/16 13:06:27;;;;;;;23.92;11.35;;;14.60;97.30;;;;;;10486621;28;20720;-68
2023/04/16 13:11:28;;;;;;;19.85;11.27;;;14.60;97.40;;;;;;10485102;28;20027;-67
2023/04/16 13:16:28;;;;;;;23.63;10.88;;;14.60;97.30;;;;;;10476474;28;20032;-67
2023/04/16 13:21:30;;;;;;;21.98;11.35;;;14.70;97.40;;;;;;10480286;28;20111;-68
2023/04/16 13:26:30;;;;;;;24.48;11.80;;;14.90;97.40;;;;;;10489775;28;20024;-68
2023/04/16 13:31:31;;;;;;;22.10;12.02;;;14.60;97.20;;;;;;10477514;28;20020;-68
2023/04/16 13:36:32;;;;;;;22.25;11.35;;;15.00;97.20;;;;;;10481189;28;20031;-68
2023/04/16 13:41:33;;;;;;;28.17;11.95;;;15.30;96.80;;;;;;10474904;28;20028;-68
2023/04/16 13:46:34;;;;;;;19.88;12.00;;;15.40;96.70;;;;;;10484306;28;20020;-68
2023/04/16 13:51:35;;;;;;;23.85;11.57;;;15.40;96.70;;;;;;10478600;28;20029;-68
2023/04/16 13:56:36;;;;;;;20.30;11.57;;;15.60;96.60;;;;;;10488155;28;20449;-68
2023/04/16 14:01:37;;;;;;;24.38;13.27;;;15.60;96.50;;;;;;10489306;28;20092;-67
2023/04/16 14:06:37;;;;;;;30.17;11.77;;;15.40;96.60;;;;;;10479084;28;20534;-68
2023/04/16 14:11:38;;;;;;;27.65;12.75;;;15.30;96.80;;;;;;10483473;28;20025;-68
2023/04/16 14:16:38;;;;;;;24.45;11.85;;;15.40;96.60;;;;;;10476111;28;20120;-67
2023/04/16 14:21:39;;;;;;;24.05;11.98;;;15.30;96.70;;;;;;10477260;28;20054;-67
2023/04/16 14:26:42;;;;;;;22.17;10.40;;;15.40;96.70;;;;;;10473210;28;20021;-67
2023/04/16 14:31:45;;;;;;;27.23;12.65;;;15.70;96.40;;;;;;10477580;28;20052;-67
2023/04/16 14:36:47;;;;;;;23.25;12.20;;;15.70;96.20;;;;;;10478199;28;20016;-67
2023/04/16 14:41:48;;;;;;;26.52;11.45;;;15.50;96.40;;;;;;10478081;28;20032;-66
2023/04/16 14:46:49;;;;;;;25.65;11.55;;;15.50;96.60;;;;;;10480006;28;20377;-66
2023/04/16 14:51:51;;;;;;;25.45;11.50;;;15.20;96.80;;;;;;10466287;28;20111;-66
2023/04/16 14:56:51;;;;;;;23.05;12.82;;;15.10;96.90;;;;;;10476207;28;20138;-65
2023/04/16 15:01:54;;;;;;;26.25;11.05;;;15.20;96.90;;;;;;10477840;28;20509;-66
2023/04/16 15:06:57;;;;;;;27.40;11.73;;;15.30;96.70;;;;;;10484422;28;20384;-66
2023/04/16 15:11:58;;;;;;;25.75;11.88;;;15.70;96.40;;;;;;10481739;28;20020;-69
2023/04/16 15:16:59;;;;;;;22.65;11.45;;;15.90;96.00;;;;;;10480185;28;20024;-66
2023/04/16 15:21:59;;;;;;;29.88;12.73;;;15.70;96.30;;;;;;10490491;28;20028;-65
2023/04/16 15:27:01;;;;;;;22.92;11.50;;;15.50;96.40;;;;;;10497936;28;20103;-68
2023/04/16 15:32:01;;;;;;;22.08;11.82;;;15.60;96.20;;;;;;10494852;28;20460;-66
2023/04/16 15:37:02;;;;;;;26.45;11.82;;;15.80;96.10;;;;;;10469604;28;20541;-68
2023/04/16 15:42:06;;;;;;;16.98;10.73;;;15.90;95.90;;;;;;10477990;28;20063;-67
2023/04/16 15:47:07;;;;;;;17.85;10.43;;;16.10;95.90;;;;;;10483755;28;20503;-67
2023/04/16 15:52:10;;;;;;;18.05;9.98;;;16.10;95.90;;;;;;10481767;28;20499;-66
2023/04/16 15:57:11;;;;;;;17.17;9.75;;;16.20;95.90;;;;;;10484596;28;20060;-67
2023/04/16 16:02:11;;;;;;;15.88;9.27;;;16.30;96.00;;;;;;10475723;28;20312;-66
2023/04/16 16:07:14;;;;;;;15.98;8.82;;;16.30;96.00;;;;;;10490891;28;20035;-66
2023/04/16 16:12:14;;;;;;;17.70;10.75;;;16.30;95.90;;;;;;10491924;28;20538;-66
2023/04/16 16:17:15;;;;;;;20.48;11.18;;;16.00;95.90;;;;;;10475366;28;20024;-66
2023/04/16 16:22:19;;;;;;;18.50;10.40;;;16.00;96.20;;;;;;10462089;28;20101;-67
2023/04/16 16:27:19;;;;;;;16.95;9.32;;;16.00;96.20;;;;;;10462472;28;20107;-67
2023/04/16 16:32:20;;;;;;;16.27;9.45;;;16.00;96.20;;;;;;10462924;28;20017;-66
2023/04/16 16:37:21;;;;;;;12.98;8.38;;;16.00;96.30;;;;;;10462855;28;20035;-65
2023/04/16 16:42:21;;;;;;;17.00;8.98;;;16.00;96.30;;;;;;10464167;28;20206;-66
2023/04/16 16:47:23;;;;;;;13.57;8.48;;;15.90;96.40;;;;;;10463089;28;20043;-67
2023/04/16 16:52:24;;;;;;;16.98;9.48;;;15.90;96.40;;;;;;10461413;28;20519;-66
2023/04/16 16:57:25;;;;;;;13.52;8.00;;;15.90;96.40;;;;;;10461288;28;20116;-66
2023/04/16 17:02:26;;;;;;;15.88;8.82;;;15.80;96.50;;;;;;10479906;28;20486;-66
2023/04/16 17:07:27;;;;;;;14.05;8.45;;;15.90;96.50;;;;;;10478735;28;20027;-67
2023/04/16 17:12:27;;;;;;;12.95;8.48;;;15.80;96.60;;;;;;10489976;28;20053;-66
2023/04/16 17:17:28;;;;;;;14.65;8.30;;;15.80;96.60;;;;;;10474020;28;20028;-66
2023/04/16 17:22:29;;;;;;;11.63;8.43;;;15.70;96.60;;;;;;10481617;28;20051;-66
2023/04/16 17:27:33;;;;;;;13.13;8.50;;;15.70;96.70;;;;;;10499989;28;20013;-65
2023/04/16 17:32:33;;;;;;;12.02;8.27;;;15.60;96.70;;;;;;10482151;28;20499;-66
2023/04/16 17:37:34;;;;;;;14.93;8.20;;;15.60;96.80;;;;;;10476541;28;20086;-65
2023/04/16 17:42:35;;;;;;;11.80;7.85;;;15.50;96.90;;;;;;10470455;28;20112;-66
2023/04/16 17:47:36;;;;;;;11.75;7.57;;;15.40;96.90;;;;;;10473256;28;20032;-65
2023/04/16 17:52:37;;;;;;;16.23;8.38;;;15.40;97.00;;;;;;10476813;28;20021;-67
2023/04/16 17:57:37;;;;;;;14.75;8.15;;;15.50;97.10;;;;;;10479506;28;20029;-67
2023/04/16 18:02:39;;;;;;;15.85;8.55;;;15.40;97.10;;;;;;10468629;28;20021;-66
2023/04/16 18:07:40;;;;;;;11.30;7.43;;;15.30;97.10;;;;;;10483534;28;20116;-66
2023/04/16 18:12:40;;;;;;;13.10;7.97;;;15.30;97.20;;;;;;10480022;28;20012;-66
2023/04/16 18:17:41;;;;;;;12.90;8.43;;;15.20;97.20;;;;;;10471671;28;20020;-67
2023/04/16 18:22:41;;;;;;;11.60;7.53;;;15.20;97.30;;;;;;10476066;28;20037;-67
2023/04/16 18:27:42;;;;;;;16.23;8.32;;;15.10;97.60;;;;;;10474398;28;20032;-66
2023/04/16 18:32:43;;;;;;;15.20;8.40;;;15.00;97.30;;;;;;10481849;28;20016;-67
2023/04/16 18:37:45;;;;;;;11.52;7.75;;;15.00;97.40;;;;;;10475623;28;20029;-67
2023/04/16 18:42:46;;;;;;;13.68;7.35;;;15.00;97.40;;;;;;10479892;28;20070;-66
2023/04/16 18:47:46;;;;;;;10.82;7.75;;;14.90;97.40;;;;;;10476414;28;20113;-67
2023/04/16 18:52:47;;;;;;;11.63;7.85;;;14.90;97.70;;;;;;10477962;28;20016;-66
2023/04/16 18:57:47;;;;;;;13.90;8.43;;;14.90;97.40;;;;;;10490581;28;20128;-67
2023/04/16 19:02:48;;;;;;;13.52;8.38;;;14.80;97.40;;;;;;10489101;28;20032;-66
2023/04/16 19:07:49;;;;;;;14.65;8.55;;;14.80;97.50;;;;;;10485413;28;20044;-66
2023/04/16 19:12:51;;;;;;;16.63;7.82;;;14.80;97.50;;;;;;10484833;28;20017;-66
2023/04/16 19:17:51;;;;;;;14.77;7.35;;;14.70;97.50;;;;;;10481274;28;20033;-66
2023/04/16 19:22:52;;;;;;;14.80;8.55;;;14.60;97.50;;;;;;10479193;28;20025;-66
2023/04/16 19:27:54;;;;;;;13.55;8.35;;;14.60;97.50;;;;;;10472389;28;20025;-66
2023/04/16 19:32:55;;;;;;;12.65;7.38;;;14.60;97.50;;;;;;10479840;28;20021;-66
2023/04/16 19:37:55;;;;;;;11.65;8.15;;;14.60;97.50;;;;;;10478340;28;20102;-66
2023/04/16 19:42:56;;;;;;;13.77;8.43;;;14.50;97.50;;;;;;10478126;28;20040;-67
2023/04/16 19:47:57;;;;;;;15.98;8.30;;;14.50;97.50;;;;;;10478844;28;20123;-67
2023/04/16 19:52:57;;;;;;;15.43;7.88;;;14.50;97.50;;;;;;10476342;28;20695;-66
2023/04/16 19:58:04;;;;;;;12.48;7.75;;;14.40;97.50;;;;;;10473893;28;20094;-66
2023/04/16 20:03:05;;;;;;;14.75;7.55;;;14.40;97.50;;;;;;10476236;28;20049;-66
2023/04/16 20:08:05;;;;;;;12.20;7.80;;;14.30;97.60;;;;;;10478072;28;20084;-66
2023/04/16 20:13:10;;;;;;;14.18;8.40;;;14.30;97.50;;;;;;10473565;28;20020;-67
2023/04/16 20:18:12;;;;;;;14.50;8.63;;;14.30;97.60;;;;;;10479319;28;20032;-66
2023/04/16 20:23:13;;;;;;;13.18;8.25;;;14.30;97.60;;;;;;10482245;28;20108;-67
2023/04/16 20:28:15;;;;;;;14.85;9.00;;;14.20;97.60;;;;;;10469756;28;21198;-66
2023/04/16 20:33:15;;;;;;;12.93;8.15;;;14.20;97.60;;;;;;10477957;28;20074;-66
2023/04/16 20:38:22;;;;;;;13.25;7.80;;;14.10;97.60;;;;;;10475538;28;20093;-66
2023/04/16 20:43:24;;;;;;;11.40;7.45;;;14.10;97.60;;;;;;10475016;28;20107;-67
2023/04/16 20:48:25;;;;;;;12.90;8.00;;;14.00;97.60;;;;;;10483600;28;20055;-66
2023/04/16 20:53:26;;;;;;;15.32;8.45;;;14.00;97.60;;;;;;10482796;28;20031;-66
2023/04/16 20:58:28;;;;;;;13.15;7.82;;;14.00;97.60;;;;;;10477519;28;20021;-66
2023/04/16 21:03:35;;;;;;;13.90;8.68;;;13.90;97.60;;;;;;10479048;28;20368;-66
2023/04/16 21:08:36;;;;;;;15.70;8.23;;;13.90;97.60;;;;;;10476073;28;20024;-66
2023/04/16 21:13:36;;;;;;;17.27;8.60;;;13.90;97.60;;;;;;10470676;28;20017;-66
2023/04/16 21:18:37;;;;;;;14.50;8.65;;;13.80;97.60;;;;;;10474593;28;20035;-66
2023/04/16 21:23:38;;;;;;;15.93;8.48;;;13.80;97.60;;;;;;10477831;28;20028;-66
2023/04/16 21:28:38;;;;;;;14.43;8.10;;;13.80;97.60;;;;;;10482592;28;20052;-66
2023/04/16 21:33:39;;;;;;;12.32;8.07;;;13.70;97.60;;;;;;10482145;28;20078;-66
2023/04/16 21:38:40;;;;;;;14.82;8.52;;;13.70;97.60;;;;;;10474896;28;20028;-66
2023/04/16 21:43:40;;;;;;;13.77;8.15;;;13.60;97.60;;;;;;10482020;28;20027;-66
2023/04/16 21:48:41;;;;;;;14.27;8.20;;;13.60;97.60;;;;;;10482887;28;20024;-66
2023/04/16 21:53:41;;;;;;;15.25;8.05;;;13.60;97.60;;;;;;10485076;28;20083;-66
2023/04/16 21:58:42;;;;;;;13.98;8.45;;;13.50;97.50;;;;;;10476376;28;20036;-66
2023/04/16 22:03:43;;;;;;;11.68;7.75;;;13.50;97.50;;;;;;10477962;28;20063;-66
2023/04/16 22:08:43;;;;;;;11.23;7.32;;;13.50;97.50;;;;;;10472892;28;20043;-66
2023/04/16 22:13:45;;;;;;;14.23;7.78;;;13.50;97.50;;;;;;10478317;28;20013;-66
2023/04/16 22:18:46;;;;;;;14.60;7.50;;;13.40;97.50;;;;;;10478911;28;20032;-66
2023/04/16 22:23:46;;;;;;;12.63;7.10;;;13.40;97.50;;;;;;10479445;28;20029;-66
2023/04/16 22:28:47;;;;;;;12.20;7.40;;;13.40;97.80;;;;;;10473912;28;20032;-66
2023/04/16 22:33:47;;;;;;;14.38;8.07;;;13.40;97.50;;;;;;10475040;28;20040;-66
2023/04/16 22:38:48;;;;;;;13.60;7.88;;;13.30;97.50;;;;;;10478338;28;20024;-66
2023/04/16 22:43:49;;;;;;;12.32;7.00;;;13.30;97.50;;;;;;10474668;28;20521;-66
2023/04/16 22:48:50;;;;;;;11.02;7.32;;;13.30;97.50;;;;;;10477636;28;20020;-66
2023/04/16 22:53:51;;;;;;;13.73;8.07;;;13.30;97.50;;;;;;10480242;28;20025;-66
2023/04/16 22:58:51;;;;;;;12.45;7.15;;;13.20;97.40;;;;;;10479829;28;20484;-66
2023/04/16 23:03:52;;;;;;;12.43;7.57;;;13.20;97.40;;;;;;10481537;28;20017;-66
2023/04/16 23:08:53;;;;;;;13.60;7.22;;;13.20;97.40;;;;;;10485833;28;20033;-66
2023/04/16 23:13:53;;;;;;;11.80;7.45;;;13.20;97.40;;;;;;10493504;28;20082;-66
2023/04/16 23:18:54;;;;;;;10.95;7.30;;;13.10;97.40;;;;;;10484988;28;20025;-66
2023/04/16 23:23:55;;;;;;;9.98;6.05;;;13.10;97.40;;;;;;10482693;28;20035;-66
2023/04/16 23:28:56;;;;;;;12.40;7.07;;;13.10;97.40;;;;;;10485576;28;20385;-66
2023/04/16 23:33:57;;;;;;;12.35;6.63;;;13.00;97.40;;;;;;10485758;28;20016;-66
2023/04/16 23:38:57;;;;;;;10.75;6.38;;;13.10;97.40;;;;;;10492837;28;20102;-66
2023/04/16 23:43:58;;;;;;;12.40;6.85;;;13.00;97.40;;;;;;10483624;28;20094;-66
2023/04/16 23:48:58;;;;;;;10.23;6.47;;;13.00;97.40;;;;;;10487656;28;20029;-66
2023/04/16 23:53:59;;;;;;;10.38;6.57;;;13.00;97.30;;;;;;10489933;28;20035;-66
2023/04/16 23:58:59;;;;;;;11.45;7.05;;;13.00;97.30;;;;;;10493652;28;20028;-66
